sensor_id;sensor_type;location;lat;lon;timestamp;P1;durP1;ratioP1;P2;durP2;ratioP2
7645;SDS011;3864;48.180;14.178;2023-06-10T00:01:03;12.65;;;8.98;;
7645;SDS011;3864;48.180;14.178;2023-06-10T00:03:31;13.93;;;9.13;;
7645;SDS011;3864;48.180;14.178;2023-06-10T00:05:59;12.57;;;8.95;;
7645;SDS011;3864;48.180;14.178;2023-06-10T00:08:28;15.43;;;8.93;;
7645;SDS011;3864;48.180;14.178;2023-06-10T00:10:56;11.63;;;8.73;;
7645;SDS011;3864;48.180;14.178;2023-06-10T00:13:24;13.13;;;9.02;;
7645;SDS011;3864;48.180;14.178;2023-06-10T00:15:53;13.95;;;9.55;;
7645;SDS011;3864;48.180;14.178;2023-06-10T00:18:21;13.27;;;8.45;;
7645;SDS011;3864;48.180;14.178;2023-06-10T00:20:48;12.18;;;8.48;;
7645;SDS011;3864;48.180;14.178;2023-06-10T00:23:18;13.95;;;9.00;;
7645;SDS011;3864;48.180;14.178;2023-06-10T00:25:45;12.73;;;8.40;;
7645;SDS011;3864;48.180;14.178;2023-06-10T00:28:12;11.10;;;8.20;;
7645;SDS011;3864;48.180;14.178;2023-06-10T00:30:40;12.98;;;8.75;;
7645;SDS011;3864;48.180;14.178;2023-06-10T00:33:10;12.70;;;8.75;;
7645;SDS011;3864;48.180;14.178;2023-06-10T00:35:38;11.48;;;8.77;;
7645;SDS011;3864;48.180;14.178;2023-06-10T00:38:06;13.30;;;9.35;;
7645;SDS011;3864;48.180;14.178;2023-06-10T00:40:33;14.68;;;9.27;;
7645;SDS011;3864;48.180;14.178;2023-06-10T00:43:06;14.18;;;9.40;;
7645;SDS011;3864;48.180;14.178;2023-06-10T00:45:33;13.32;;;9.15;;
7645;SDS011;3864;48.180;14.178;2023-06-10T00:48:01;15.30;;;9.93;;
7645;SDS011;3864;48.180;14.178;2023-06-10T00:50:32;12.77;;;8.88;;
7645;SDS011;3864;48.180;14.178;2023-06-10T00:52:59;14.57;;;9.02;;
7645;SDS011;3864;48.180;14.178;2023-06-10T00:55:27;14.07;;;8.40;;
7645;SDS011;3864;48.180;14.178;2023-06-10T00:57:56;16.25;;;9.48;;
7645;SDS011;3864;48.180;14.178;2023-06-10T01:00:24;12.05;;;8.23;;
7645;SDS011;3864;48.180;14.178;2023-06-10T01:02:52;13.73;;;8.30;;
7645;SDS011;3864;48.180;14.178;2023-06-10T01:05:20;15.05;;;9.90;;
7645;SDS011;3864;48.180;14.178;2023-06-10T01:07:50;15.10;;;10.13;;
7645;SDS011;3864;48.180;14.178;2023-06-10T01:10:24;16.08;;;10.30;;
7645;SDS011;3864;48.180;14.178;2023-06-10T01:12:58;14.75;;;10.30;;
7645;SDS011;3864;48.180;14.178;2023-06-10T01:15:28;11.07;;;8.55;;
7645;SDS011;3864;48.180;14.178;2023-06-10T01:17:56;14.77;;;8.63;;
7645;SDS011;3864;48.180;14.178;2023-06-10T01:20:25;15.38;;;8.27;;
7645;SDS011;3864;48.180;14.178;2023-06-10T01:22:55;14.18;;;9.82;;
7645;SDS011;3864;48.180;14.178;2023-06-10T01:25:23;11.00;;;7.82;;
7645;SDS011;3864;48.180;14.178;2023-06-10T01:27:54;12.73;;;8.63;;
7645;SDS011;3864;48.180;14.178;2023-06-10T01:30:30;13.73;;;8.70;;
7645;SDS011;3864;48.180;14.178;2023-06-10T01:33:03;15.73;;;9.07;;
7645;SDS011;3864;48.180;14.178;2023-06-10T01:35:33;14.45;;;9.18;;
7645;SDS011;3864;48.180;14.178;2023-06-10T01:38:04;16.67;;;10.20;;
7645;SDS011;3864;48.180;14.178;2023-06-10T01:40:33;17.58;;;10.18;;
7645;SDS011;3864;48.180;14.178;2023-06-10T01:43:01;14.57;;;9.85;;
7645;SDS011;3864;48.180;14.178;2023-06-10T01:45:29;15.18;;;9.32;;
7645;SDS011;3864;48.180;14.178;2023-06-10T01:47:56;12.75;;;9.40;;
7645;SDS011;3864;48.180;14.178;2023-06-10T01:50:23;13.38;;;8.43;;
7645;SDS011;3864;48.180;14.178;2023-06-10T01:52:50;16.45;;;9.20;;
7645;SDS011;3864;48.180;14.178;2023-06-10T01:55:20;14.48;;;9.18;;
7645;SDS011;3864;48.180;14.178;2023-06-10T01:57:47;15.50;;;9.32;;
7645;SDS011;3864;48.180;14.178;2023-06-10T02:00:15;15.00;;;9.77;;
7645;SDS011;3864;48.180;14.178;2023-06-10T02:02:42;16.52;;;9.88;;
7645;SDS011;3864;48.180;14.178;2023-06-10T02:05:10;17.80;;;9.98;;
7645;SDS011;3864;48.180;14.178;2023-06-10T02:07:37;17.75;;;10.63;;
7645;SDS011;3864;48.180;14.178;2023-06-10T02:10:06;16.27;;;9.63;;
7645;SDS011;3864;48.180;14.178;2023-06-10T02:12:35;17.02;;;10.07;;
7645;SDS011;3864;48.180;14.178;2023-06-10T02:15:03;18.85;;;10.88;;
7645;SDS011;3864;48.180;14.178;2023-06-10T02:17:30;16.77;;;10.48;;
7645;SDS011;3864;48.180;14.178;2023-06-10T02:19:58;17.63;;;10.48;;
7645;SDS011;3864;48.180;14.178;2023-06-10T02:22:32;21.38;;;11.88;;
7645;SDS011;3864;48.180;14.178;2023-06-10T02:25:00;19.35;;;11.70;;
7645;SDS011;3864;48.180;14.178;2023-06-10T02:27:27;19.65;;;11.32;;
7645;SDS011;3864;48.180;14.178;2023-06-10T02:29:57;21.30;;;12.13;;
7645;SDS011;3864;48.180;14.178;2023-06-10T02:32:24;18.05;;;11.07;;
7645;SDS011;3864;48.180;14.178;2023-06-10T02:34:53;20.33;;;11.05;;
7645;SDS011;3864;48.180;14.178;2023-06-10T02:37:20;14.93;;;9.18;;
7645;SDS011;3864;48.180;14.178;2023-06-10T02:39:47;14.13;;;9.52;;
7645;SDS011;3864;48.180;14.178;2023-06-10T02:42:16;14.00;;;9.30;;
7645;SDS011;3864;48.180;14.178;2023-06-10T02:44:44;16.27;;;10.55;;
7645;SDS011;3864;48.180;14.178;2023-06-10T02:47:15;19.60;;;10.93;;
7645;SDS011;3864;48.180;14.178;2023-06-10T02:49:43;17.80;;;11.27;;
7645;SDS011;3864;48.180;14.178;2023-06-10T02:52:11;19.00;;;10.32;;
7645;SDS011;3864;48.180;14.178;2023-06-10T02:54:46;19.50;;;10.63;;
7645;SDS011;3864;48.180;14.178;2023-06-10T02:57:15;17.35;;;10.27;;
7645;SDS011;3864;48.180;14.178;2023-06-10T02:59:42;19.60;;;10.48;;
7645;SDS011;3864;48.180;14.178;2023-06-10T03:02:10;18.65;;;10.65;;
7645;SDS011;3864;48.180;14.178;2023-06-10T03:04:39;16.88;;;10.88;;
7645;SDS011;3864;48.180;14.178;2023-06-10T03:07:08;21.00;;;11.15;;
7645;SDS011;3864;48.180;14.178;2023-06-10T03:09:36;19.52;;;10.80;;
7645;SDS011;3864;48.180;14.178;2023-06-10T03:12:03;19.45;;;11.23;;
7645;SDS011;3864;48.180;14.178;2023-06-10T03:14:45;23.08;;;12.05;;
7645;SDS011;3864;48.180;14.178;2023-06-10T03:17:12;19.85;;;10.88;;
7645;SDS011;3864;48.180;14.178;2023-06-10T03:19:49;17.90;;;10.30;;
7645;SDS011;3864;48.180;14.178;2023-06-10T03:22:22;20.45;;;11.15;;
7645;SDS011;3864;48.180;14.178;2023-06-10T03:24:51;21.80;;;11.63;;
7645;SDS011;3864;48.180;14.178;2023-06-10T03:27:18;18.88;;;11.10;;
7645;SDS011;3864;48.180;14.178;2023-06-10T03:29:45;23.10;;;13.02;;
7645;SDS011;3864;48.180;14.178;2023-06-10T03:32:13;21.65;;;11.85;;
7645;SDS011;3864;48.180;14.178;2023-06-10T03:34:40;25.33;;;13.02;;
7645;SDS011;3864;48.180;14.178;2023-06-10T03:37:12;19.35;;;11.10;;
7645;SDS011;3864;48.180;14.178;2023-06-10T03:39:40;20.80;;;11.68;;
7645;SDS011;3864;48.180;14.178;2023-06-10T03:42:08;22.65;;;11.45;;
7645;SDS011;3864;48.180;14.178;2023-06-10T03:44:36;25.30;;;12.75;;
7645;SDS011;3864;48.180;14.178;2023-06-10T03:47:03;23.13;;;12.70;;
7645;SDS011;3864;48.180;14.178;2023-06-10T03:49:31;22.77;;;11.55;;
7645;SDS011;3864;48.180;14.178;2023-06-10T03:51:58;21.20;;;11.63;;
7645;SDS011;3864;48.180;14.178;2023-06-10T03:54:27;19.33;;;11.30;;
7645;SDS011;3864;48.180;14.178;2023-06-10T03:56:54;20.25;;;11.73;;
7645;SDS011;3864;48.180;14.178;2023-06-10T03:59:25;22.60;;;12.15;;
7645;SDS011;3864;48.180;14.178;2023-06-10T04:01:53;21.42;;;11.70;;
7645;SDS011;3864;48.180;14.178;2023-06-10T04:04:21;20.95;;;11.70;;
7645;SDS011;3864;48.180;14.178;2023-06-10T04:06:49;25.95;;;12.63;;
7645;SDS011;3864;48.180;14.178;2023-06-10T04:09:18;27.05;;;14.25;;
7645;SDS011;3864;48.180;14.178;2023-06-10T04:11:50;26.17;;;13.65;;
7645;SDS011;3864;48.180;14.178;2023-06-10T04:14:18;30.20;;;13.13;;
7645;SDS011;3864;48.180;14.178;2023-06-10T04:16:46;29.38;;;14.57;;
7645;SDS011;3864;48.180;14.178;2023-06-10T04:19:13;27.33;;;13.68;;
7645;SDS011;3864;48.180;14.178;2023-06-10T04:21:41;27.75;;;14.30;;
7645;SDS011;3864;48.180;14.178;2023-06-10T04:24:09;24.77;;;12.85;;
7645;SDS011;3864;48.180;14.178;2023-06-10T04:26:38;27.45;;;13.07;;
7645;SDS011;3864;48.180;14.178;2023-06-10T04:29:07;33.92;;;15.40;;
7645;SDS011;3864;48.180;14.178;2023-06-10T04:31:34;29.10;;;15.27;;
7645;SDS011;3864;48.180;14.178;2023-06-10T04:34:02;27.75;;;14.55;;
7645;SDS011;3864;48.180;14.178;2023-06-10T04:36:29;31.38;;;14.85;;
7645;SDS011;3864;48.180;14.178;2023-06-10T04:38:57;30.38;;;15.15;;
7645;SDS011;3864;48.180;14.178;2023-06-10T04:41:26;27.15;;;15.27;;
7645;SDS011;3864;48.180;14.178;2023-06-10T04:43:55;24.75;;;14.60;;
7645;SDS011;3864;48.180;14.178;2023-06-10T04:46:24;29.60;;;16.23;;
7645;SDS011;3864;48.180;14.178;2023-06-10T04:48:51;28.42;;;15.98;;
7645;SDS011;3864;48.180;14.178;2023-06-10T04:51:20;32.67;;;16.70;;
7645;SDS011;3864;48.180;14.178;2023-06-10T04:53:47;26.25;;;14.55;;
7645;SDS011;3864;48.180;14.178;2023-06-10T04:56:14;27.58;;;14.85;;
7645;SDS011;3864;48.180;14.178;2023-06-10T04:58:42;24.30;;;14.30;;
7645;SDS011;3864;48.180;14.178;2023-06-10T05:01:09;27.40;;;15.35;;
7645;SDS011;3864;48.180;14.178;2023-06-10T05:03:38;25.85;;;15.48;;
7645;SDS011;3864;48.180;14.178;2023-06-10T05:06:05;25.33;;;16.13;;
7645;SDS011;3864;48.180;14.178;2023-06-10T05:08:32;24.95;;;16.15;;
7645;SDS011;3864;48.180;14.178;2023-06-10T05:11:00;22.88;;;15.15;;
7645;SDS011;3864;48.180;14.178;2023-06-10T05:13:27;21.70;;;14.48;;
7645;SDS011;3864;48.180;14.178;2023-06-10T05:15:55;24.02;;;15.52;;
7645;SDS011;3864;48.180;14.178;2023-06-10T05:18:23;21.52;;;13.85;;
7645;SDS011;3864;48.180;14.178;2023-06-10T05:20:52;19.65;;;13.15;;
7645;SDS011;3864;48.180;14.178;2023-06-10T05:23:20;23.35;;;14.57;;
7645;SDS011;3864;48.180;14.178;2023-06-10T05:25:48;22.85;;;14.48;;
7645;SDS011;3864;48.180;14.178;2023-06-10T05:28:15;19.35;;;13.20;;
7645;SDS011;3864;48.180;14.178;2023-06-10T05:30:43;18.67;;;13.27;;
7645;SDS011;3864;48.180;14.178;2023-06-10T05:33:10;18.75;;;13.57;;
7645;SDS011;3864;48.180;14.178;2023-06-10T05:35:38;17.20;;;12.60;;
7645;SDS011;3864;48.180;14.178;2023-06-10T05:38:09;16.25;;;11.82;;
7645;SDS011;3864;48.180;14.178;2023-06-10T05:40:36;18.48;;;12.88;;
7645;SDS011;3864;48.180;14.178;2023-06-10T05:43:04;14.52;;;11.40;;
7645;SDS011;3864;48.180;14.178;2023-06-10T05:45:31;14.98;;;11.63;;
7645;SDS011;3864;48.180;14.178;2023-06-10T05:48:00;15.02;;;11.35;;
7645;SDS011;3864;48.180;14.178;2023-06-10T05:50:28;14.27;;;11.25;;
7645;SDS011;3864;48.180;14.178;2023-06-10T05:52:55;15.95;;;10.90;;
7645;SDS011;3864;48.180;14.178;2023-06-10T05:55:25;13.90;;;9.82;;
7645;SDS011;3864;48.180;14.178;2023-06-10T05:57:58;13.40;;;9.98;;
7645;SDS011;3864;48.180;14.178;2023-06-10T06:00:26;15.43;;;9.80;;
7645;SDS011;3864;48.180;14.178;2023-06-10T06:02:54;12.70;;;9.85;;
7645;SDS011;3864;48.180;14.178;2023-06-10T06:05:22;14.45;;;10.23;;
7645;SDS011;3864;48.180;14.178;2023-06-10T06:07:49;14.98;;;10.52;;
7645;SDS011;3864;48.180;14.178;2023-06-10T06:10:17;12.32;;;9.63;;
7645;SDS011;3864;48.180;14.178;2023-06-10T06:12:46;11.65;;;9.57;;
7645;SDS011;3864;48.180;14.178;2023-06-10T06:15:13;12.02;;;9.73;;
7645;SDS011;3864;48.180;14.178;2023-06-10T06:17:41;12.27;;;10.15;;
7645;SDS011;3864;48.180;14.178;2023-06-10T06:20:08;11.38;;;9.40;;
7645;SDS011;3864;48.180;14.178;2023-06-10T06:22:36;12.90;;;10.32;;
7645;SDS011;3864;48.180;14.178;2023-06-10T06:25:03;12.27;;;9.98;;
7645;SDS011;3864;48.180;14.178;2023-06-10T06:27:31;13.43;;;9.15;;
7645;SDS011;3864;48.180;14.178;2023-06-10T06:30:00;12.15;;;9.23;;
7645;SDS011;3864;48.180;14.178;2023-06-10T06:32:28;13.82;;;10.15;;
7645;SDS011;3864;48.180;14.178;2023-06-10T06:34:56;11.90;;;9.38;;
7645;SDS011;3864;48.180;14.178;2023-06-10T06:37:24;14.05;;;10.60;;
7645;SDS011;3864;48.180;14.178;2023-06-10T06:39:52;12.20;;;9.88;;
7645;SDS011;3864;48.180;14.178;2023-06-10T06:42:20;13.43;;;9.48;;
7645;SDS011;3864;48.180;14.178;2023-06-10T06:44:48;11.52;;;9.00;;
7645;SDS011;3864;48.180;14.178;2023-06-10T06:47:40;11.80;;;9.30;;
7645;SDS011;3864;48.180;14.178;2023-06-10T06:52:36;12.80;;;9.95;;
7645;SDS011;3864;48.180;14.178;2023-06-10T06:55:04;12.02;;;9.85;;
7645;SDS011;3864;48.180;14.178;2023-06-10T06:57:31;11.60;;;9.30;;
7645;SDS011;3864;48.180;14.178;2023-06-10T06:59:59;13.65;;;10.20;;
7645;SDS011;3864;48.180;14.178;2023-06-10T07:02:26;13.02;;;9.23;;
7645;SDS011;3864;48.180;14.178;2023-06-10T07:04:55;12.88;;;9.65;;
7645;SDS011;3864;48.180;14.178;2023-06-10T07:07:24;13.18;;;10.23;;
7645;SDS011;3864;48.180;14.178;2023-06-10T07:09:51;10.93;;;8.10;;
7645;SDS011;3864;48.180;14.178;2023-06-10T07:12:19;10.50;;;8.40;;
7645;SDS011;3864;48.180;14.178;2023-06-10T07:14:49;12.23;;;9.60;;
7645;SDS011;3864;48.180;14.178;2023-06-10T07:17:16;10.77;;;9.25;;
7645;SDS011;3864;48.180;14.178;2023-06-10T07:19:44;12.23;;;8.85;;
7645;SDS011;3864;48.180;14.178;2023-06-10T07:22:14;10.52;;;7.90;;
7645;SDS011;3864;48.180;14.178;2023-06-10T07:24:42;10.13;;;8.50;;
7645;SDS011;3864;48.180;14.178;2023-06-10T07:27:09;11.48;;;8.50;;
7645;SDS011;3864;48.180;14.178;2023-06-10T07:29:37;10.10;;;7.80;;
7645;SDS011;3864;48.180;14.178;2023-06-10T07:32:04;11.65;;;8.23;;
7645;SDS011;3864;48.180;14.178;2023-06-10T07:34:32;9.57;;;7.68;;
7645;SDS011;3864;48.180;14.178;2023-06-10T07:36:59;10.07;;;8.02;;
7645;SDS011;3864;48.180;14.178;2023-06-10T07:39:28;9.50;;;8.15;;
7645;SDS011;3864;48.180;14.178;2023-06-10T07:41:56;9.85;;;7.28;;
7645;SDS011;3864;48.180;14.178;2023-06-10T07:44:23;11.20;;;7.57;;
7645;SDS011;3864;48.180;14.178;2023-06-10T07:46:51;10.18;;;7.53;;
7645;SDS011;3864;48.180;14.178;2023-06-10T07:49:18;9.68;;;7.13;;
7645;SDS011;3864;48.180;14.178;2023-06-10T07:51:45;8.43;;;6.93;;
7645;SDS011;3864;48.180;14.178;2023-06-10T07:54:12;9.73;;;7.97;;
7645;SDS011;3864;48.180;14.178;2023-06-10T07:56:41;8.13;;;6.60;;
7645;SDS011;3864;48.180;14.178;2023-06-10T07:59:09;9.02;;;7.05;;
7645;SDS011;3864;48.180;14.178;2023-06-10T08:01:36;9.88;;;6.88;;
7645;SDS011;3864;48.180;14.178;2023-06-10T08:04:04;7.53;;;6.70;;
7645;SDS011;3864;48.180;14.178;2023-06-10T08:06:32;7.90;;;6.28;;
7645;SDS011;3864;48.180;14.178;2023-06-10T08:09:01;7.88;;;6.13;;
7645;SDS011;3864;48.180;14.178;2023-06-10T08:11:29;7.75;;;6.10;;
7645;SDS011;3864;48.180;14.178;2023-06-10T08:13:57;7.25;;;6.22;;
7645;SDS011;3864;48.180;14.178;2023-06-10T08:16:25;8.10;;;6.05;;
7645;SDS011;3864;48.180;14.178;2023-06-10T08:18:52;8.10;;;6.25;;
7645;SDS011;3864;48.180;14.178;2023-06-10T08:21:19;8.77;;;6.00;;
7645;SDS011;3864;48.180;14.178;2023-06-10T08:23:47;7.97;;;6.18;;
7645;SDS011;3864;48.180;14.178;2023-06-10T08:26:14;7.22;;;6.28;;
7645;SDS011;3864;48.180;14.178;2023-06-10T08:28:41;9.05;;;6.35;;
7645;SDS011;3864;48.180;14.178;2023-06-10T08:31:10;7.00;;;5.90;;
7645;SDS011;3864;48.180;14.178;2023-06-10T08:33:37;7.85;;;6.65;;
7645;SDS011;3864;48.180;14.178;2023-06-10T08:36:05;7.28;;;5.72;;
7645;SDS011;3864;48.180;14.178;2023-06-10T08:38:32;6.65;;;5.95;;
7645;SDS011;3864;48.180;14.178;2023-06-10T08:41:00;8.68;;;6.82;;
7645;SDS011;3864;48.180;14.178;2023-06-10T08:43:29;7.18;;;6.18;;
7645;SDS011;3864;48.180;14.178;2023-06-10T08:46:00;9.20;;;6.70;;
7645;SDS011;3864;48.180;14.178;2023-06-10T08:48:30;8.30;;;6.90;;
7645;SDS011;3864;48.180;14.178;2023-06-10T08:51:01;8.85;;;7.30;;
7645;SDS011;3864;48.180;14.178;2023-06-10T08:53:31;8.80;;;7.15;;
7645;SDS011;3864;48.180;14.178;2023-06-10T08:56:03;8.32;;;6.60;;
7645;SDS011;3864;48.180;14.178;2023-06-10T08:58:32;6.93;;;6.20;;
7645;SDS011;3864;48.180;14.178;2023-06-10T09:01:05;10.10;;;7.63;;
7645;SDS011;3864;48.180;14.178;2023-06-10T09:03:34;9.95;;;6.82;;
7645;SDS011;3864;48.180;14.178;2023-06-10T09:06:04;11.18;;;7.78;;
7645;SDS011;3864;48.180;14.178;2023-06-10T09:08:33;8.02;;;7.20;;
7645;SDS011;3864;48.180;14.178;2023-06-10T09:11:01;7.78;;;6.53;;
7645;SDS011;3864;48.180;14.178;2023-06-10T09:13:28;8.10;;;6.50;;
7645;SDS011;3864;48.180;14.178;2023-06-10T09:15:56;7.82;;;6.38;;
7645;SDS011;3864;48.180;14.178;2023-06-10T09:18:26;7.32;;;6.55;;
7645;SDS011;3864;48.180;14.178;2023-06-10T09:20:55;8.60;;;7.03;;
7645;SDS011;3864;48.180;14.178;2023-06-10T09:23:22;7.10;;;5.90;;
7645;SDS011;3864;48.180;14.178;2023-06-10T09:25:55;7.35;;;6.25;;
7645;SDS011;3864;48.180;14.178;2023-06-10T09:28:24;7.25;;;6.43;;
7645;SDS011;3864;48.180;14.178;2023-06-10T09:31:02;8.13;;;6.63;;
7645;SDS011;3864;48.180;14.178;2023-06-10T09:33:30;6.55;;;5.88;;
7645;SDS011;3864;48.180;14.178;2023-06-10T09:36:00;6.50;;;5.80;;
7645;SDS011;3864;48.180;14.178;2023-06-10T09:38:32;7.57;;;6.30;;
7645;SDS011;3864;48.180;14.178;2023-06-10T09:41:00;8.02;;;6.60;;
7645;SDS011;3864;48.180;14.178;2023-06-10T09:43:39;8.02;;;6.00;;
7645;SDS011;3864;48.180;14.178;2023-06-10T09:46:07;7.82;;;6.13;;
7645;SDS011;3864;48.180;14.178;2023-06-10T09:48:42;7.25;;;6.32;;
7645;SDS011;3864;48.180;14.178;2023-06-10T09:51:11;7.68;;;6.47;;
7645;SDS011;3864;48.180;14.178;2023-06-10T09:53:38;8.57;;;6.70;;
7645;SDS011;3864;48.180;14.178;2023-06-10T09:56:07;8.05;;;6.63;;
7645;SDS011;3864;48.180;14.178;2023-06-10T09:58:35;6.32;;;5.60;;
7645;SDS011;3864;48.180;14.178;2023-06-10T10:01:07;6.35;;;5.75;;
7645;SDS011;3864;48.180;14.178;2023-06-10T10:03:42;7.15;;;5.97;;
7645;SDS011;3864;48.180;14.178;2023-06-10T10:06:13;7.80;;;5.95;;
7645;SDS011;3864;48.180;14.178;2023-06-10T10:08:41;5.93;;;5.32;;
7645;SDS011;3864;48.180;14.178;2023-06-10T10:11:08;6.00;;;5.40;;
7645;SDS011;3864;48.180;14.178;2023-06-10T10:13:36;5.88;;;5.28;;
7645;SDS011;3864;48.180;14.178;2023-06-10T10:16:06;6.72;;;5.78;;
7645;SDS011;3864;48.180;14.178;2023-06-10T10:18:39;5.82;;;5.22;;
7645;SDS011;3864;48.180;14.178;2023-06-10T10:21:11;6.75;;;5.90;;
7645;SDS011;3864;48.180;14.178;2023-06-10T10:23:41;5.78;;;5.18;;
7645;SDS011;3864;48.180;14.178;2023-06-10T10:26:15;6.82;;;6.13;;
7645;SDS011;3864;48.180;14.178;2023-06-10T10:28:44;7.05;;;5.72;;
7645;SDS011;3864;48.180;14.178;2023-06-10T10:31:16;5.90;;;5.30;;
7645;SDS011;3864;48.180;14.178;2023-06-10T10:33:48;6.55;;;5.68;;
7645;SDS011;3864;48.180;14.178;2023-06-10T10:36:22;5.45;;;4.90;;
7645;SDS011;3864;48.180;14.178;2023-06-10T10:38:49;6.43;;;5.70;;
7645;SDS011;3864;48.180;14.178;2023-06-10T10:41:18;6.65;;;5.95;;
7645;SDS011;3864;48.180;14.178;2023-06-10T10:43:46;5.80;;;5.20;;
7645;SDS011;3864;48.180;14.178;2023-06-10T10:46:16;6.28;;;5.13;;
7645;SDS011;3864;48.180;14.178;2023-06-10T10:48:44;5.13;;;4.60;;
7645;SDS011;3864;48.180;14.178;2023-06-10T10:51:11;6.00;;;5.40;;
7645;SDS011;3864;48.180;14.178;2023-06-10T10:53:43;6.38;;;5.05;;
7645;SDS011;3864;48.180;14.178;2023-06-10T10:56:12;6.25;;;5.65;;
7645;SDS011;3864;48.180;14.178;2023-06-10T10:58:42;6.20;;;5.55;;
7645;SDS011;3864;48.180;14.178;2023-06-10T11:01:39;6.38;;;5.05;;
7645;SDS011;3864;48.180;14.178;2023-06-10T11:04:07;6.05;;;5.35;;
7645;SDS011;3864;48.180;14.178;2023-06-10T11:06:35;7.68;;;6.15;;
7645;SDS011;3864;48.180;14.178;2023-06-10T11:09:24;6.57;;;5.60;;
7645;SDS011;3864;48.180;14.178;2023-06-10T11:11:53;6.75;;;5.20;;
7645;SDS011;3864;48.180;14.178;2023-06-10T11:14:26;6.50;;;5.55;;
7645;SDS011;3864;48.180;14.178;2023-06-10T11:16:56;6.97;;;5.60;;
7645;SDS011;3864;48.180;14.178;2023-06-10T11:19:34;6.15;;;5.53;;
7645;SDS011;3864;48.180;14.178;2023-06-10T11:22:03;6.55;;;5.50;;
7645;SDS011;3864;48.180;14.178;2023-06-10T11:24:33;5.97;;;5.38;;
7645;SDS011;3864;48.180;14.178;2023-06-10T11:27:16;8.60;;;5.68;;
7645;SDS011;3864;48.180;14.178;2023-06-10T11:29:58;5.70;;;5.10;;
7645;SDS011;3864;48.180;14.178;2023-06-10T11:32:43;6.70;;;5.30;;
7645;SDS011;3864;48.180;14.178;2023-06-10T11:35:11;5.28;;;4.78;;
7645;SDS011;3864;48.180;14.178;2023-06-10T11:37:38;7.25;;;5.00;;
7645;SDS011;3864;48.180;14.178;2023-06-10T11:40:08;6.78;;;6.03;;
7645;SDS011;3864;48.180;14.178;2023-06-10T11:42:38;7.00;;;6.30;;
7645;SDS011;3864;48.180;14.178;2023-06-10T11:45:06;7.68;;;5.93;;
7645;SDS011;3864;48.180;14.178;2023-06-10T11:47:35;8.98;;;6.47;;
7645;SDS011;3864;48.180;14.178;2023-06-10T11:50:02;8.13;;;6.10;;
7645;SDS011;3864;48.180;14.178;2023-06-10T11:52:31;8.55;;;6.93;;
7645;SDS011;3864;48.180;14.178;2023-06-10T11:57:34;8.63;;;5.50;;
7645;SDS011;3864;48.180;14.178;2023-06-10T12:00:04;9.73;;;6.18;;
7645;SDS011;3864;48.180;14.178;2023-06-10T12:02:32;10.82;;;5.85;;
7645;SDS011;3864;48.180;14.178;2023-06-10T12:05:09;10.10;;;6.85;;
7645;SDS011;3864;48.180;14.178;2023-06-10T12:07:38;6.47;;;5.10;;
7645;SDS011;3864;48.180;14.178;2023-06-10T12:10:06;7.50;;;5.55;;
7645;SDS011;3864;48.180;14.178;2023-06-10T12:12:35;5.93;;;4.65;;
7645;SDS011;3864;48.180;14.178;2023-06-10T12:15:03;7.43;;;5.70;;
7645;SDS011;3864;48.180;14.178;2023-06-10T12:17:35;6.82;;;5.40;;
7645;SDS011;3864;48.180;14.178;2023-06-10T12:20:04;8.45;;;6.00;;
7645;SDS011;3864;48.180;14.178;2023-06-10T12:22:37;6.38;;;4.80;;
7645;SDS011;3864;48.180;14.178;2023-06-10T12:25:06;7.38;;;4.65;;
7645;SDS011;3864;48.180;14.178;2023-06-10T12:27:35;5.60;;;4.55;;
7645;SDS011;3864;48.180;14.178;2023-06-10T12:30:05;5.88;;;4.82;;
7645;SDS011;3864;48.180;14.178;2023-06-10T12:32:37;5.95;;;5.03;;
7645;SDS011;3864;48.180;14.178;2023-06-10T12:35:09;6.40;;;5.15;;
7645;SDS011;3864;48.180;14.178;2023-06-10T12:37:37;6.20;;;4.95;;
7645;SDS011;3864;48.180;14.178;2023-06-10T12:40:05;5.97;;;5.05;;
7645;SDS011;3864;48.180;14.178;2023-06-10T12:42:33;5.75;;;4.32;;
7645;SDS011;3864;48.180;14.178;2023-06-10T12:45:05;6.82;;;5.15;;
7645;SDS011;3864;48.180;14.178;2023-06-10T12:47:35;6.15;;;5.55;;
7645;SDS011;3864;48.180;14.178;2023-06-10T12:50:04;5.70;;;5.10;;
7645;SDS011;3864;48.180;14.178;2023-06-10T12:52:32;5.60;;;5.00;;
7645;SDS011;3864;48.180;14.178;2023-06-10T12:54:59;7.05;;;5.85;;
7645;SDS011;3864;48.180;14.178;2023-06-10T12:57:29;6.10;;;5.25;;
7645;SDS011;3864;48.180;14.178;2023-06-10T12:59:58;7.35;;;6.25;;
7645;SDS011;3864;48.180;14.178;2023-06-10T13:02:28;8.23;;;6.88;;
7645;SDS011;3864;48.180;14.178;2023-06-10T13:04:56;6.50;;;5.82;;
7645;SDS011;3864;48.180;14.178;2023-06-10T13:07:23;9.63;;;6.13;;
7645;SDS011;3864;48.180;14.178;2023-06-10T13:09:51;7.07;;;6.07;;
7645;SDS011;3864;48.180;14.178;2023-06-10T13:12:18;6.38;;;5.72;;
7645;SDS011;3864;48.180;14.178;2023-06-10T13:14:46;5.88;;;5.07;;
7645;SDS011;3864;48.180;14.178;2023-06-10T13:17:15;5.97;;;5.00;;
7645;SDS011;3864;48.180;14.178;2023-06-10T13:19:43;6.47;;;5.55;;
7645;SDS011;3864;48.180;14.178;2023-06-10T13:22:10;8.15;;;5.03;;
7645;SDS011;3864;48.180;14.178;2023-06-10T13:24:38;7.10;;;5.47;;
7645;SDS011;3864;48.180;14.178;2023-06-10T13:27:07;7.38;;;5.50;;
7645;SDS011;3864;48.180;14.178;2023-06-10T13:29:34;7.95;;;6.32;;
7645;SDS011;3864;48.180;14.178;2023-06-10T13:32:01;6.55;;;5.82;;
7645;SDS011;3864;48.180;14.178;2023-06-10T13:34:30;6.90;;;6.20;;
7645;SDS011;3864;48.180;14.178;2023-06-10T13:36:58;9.38;;;6.93;;
7645;SDS011;3864;48.180;14.178;2023-06-10T13:39:25;9.40;;;6.22;;
7645;SDS011;3864;48.180;14.178;2023-06-10T13:41:53;9.75;;;7.55;;
7645;SDS011;3864;48.180;14.178;2023-06-10T13:44:20;10.00;;;7.95;;
7645;SDS011;3864;48.180;14.178;2023-06-10T13:46:47;11.50;;;8.57;;
7645;SDS011;3864;48.180;14.178;2023-06-10T13:49:14;10.35;;;7.57;;
7645;SDS011;3864;48.180;14.178;2023-06-10T13:51:44;10.57;;;7.60;;
7645;SDS011;3864;48.180;14.178;2023-06-10T13:54:11;11.30;;;7.35;;
7645;SDS011;3864;48.180;14.178;2023-06-10T13:56:40;10.00;;;7.60;;
7645;SDS011;3864;48.180;14.178;2023-06-10T13:59:08;10.43;;;7.50;;
7645;SDS011;3864;48.180;14.178;2023-06-10T14:01:35;10.73;;;7.88;;
7645;SDS011;3864;48.180;14.178;2023-06-10T14:04:02;12.73;;;8.23;;
7645;SDS011;3864;48.180;14.178;2023-06-10T14:06:30;12.93;;;9.30;;
7645;SDS011;3864;48.180;14.178;2023-06-10T14:09:00;12.98;;;8.57;;
7645;SDS011;3864;48.180;14.178;2023-06-10T14:11:27;13.25;;;8.65;;
7645;SDS011;3864;48.180;14.178;2023-06-10T14:13:54;13.07;;;9.32;;
7645;SDS011;3864;48.180;14.178;2023-06-10T14:16:22;14.73;;;9.60;;
7645;SDS011;3864;48.180;14.178;2023-06-10T14:18:50;13.25;;;9.10;;
7645;SDS011;3864;48.180;14.178;2023-06-10T14:21:17;13.20;;;8.63;;
7645;SDS011;3864;48.180;14.178;2023-06-10T14:23:44;13.40;;;7.97;;
7645;SDS011;3864;48.180;14.178;2023-06-10T14:26:15;14.57;;;9.38;;
7645;SDS011;3864;48.180;14.178;2023-06-10T14:28:42;11.95;;;8.75;;
7645;SDS011;3864;48.180;14.178;2023-06-10T14:31:10;15.18;;;8.88;;
7645;SDS011;3864;48.180;14.178;2023-06-10T14:33:37;13.35;;;8.45;;
7645;SDS011;3864;48.180;14.178;2023-06-10T14:36:04;18.10;;;9.43;;
7645;SDS011;3864;48.180;14.178;2023-06-10T14:38:32;15.00;;;8.82;;
7645;SDS011;3864;48.180;14.178;2023-06-10T14:40:59;15.38;;;9.15;;
7645;SDS011;3864;48.180;14.178;2023-06-10T14:43:28;12.60;;;9.00;;
7645;SDS011;3864;48.180;14.178;2023-06-10T14:45:56;13.50;;;8.80;;
7645;SDS011;3864;48.180;14.178;2023-06-10T14:48:23;11.15;;;7.95;;
7645;SDS011;3864;48.180;14.178;2023-06-10T14:50:50;11.48;;;8.45;;
7645;SDS011;3864;48.180;14.178;2023-06-10T14:53:20;14.85;;;7.85;;
7645;SDS011;3864;48.180;14.178;2023-06-10T14:55:47;13.80;;;8.50;;
7645;SDS011;3864;48.180;14.178;2023-06-10T14:58:15;11.18;;;8.43;;
7645;SDS011;3864;48.180;14.178;2023-06-10T15:00:44;13.13;;;8.88;;
7645;SDS011;3864;48.180;14.178;2023-06-10T15:03:11;9.75;;;7.60;;
7645;SDS011;3864;48.180;14.178;2023-06-10T15:05:38;9.85;;;6.70;;